createdAt,value
2019-02-04T00:02:13.837Z,91.97
2019-02-04T00:04:40.863Z,92.12
2019-02-04T00:07:08.769Z,92.27
2019-02-04T00:09:35.450Z,92.26
2019-02-04T00:12:02.823Z,92.43
2019-02-04T00:14:29.581Z,92.37
2019-02-04T00:16:56.107Z,92.38
2019-02-04T00:19:22.479Z,92.42
2019-02-04T00:21:49.298Z,92.40
2019-02-04T00:24:16.239Z,92.34
2019-02-04T00:39:42.036Z,93.24
2019-02-04T00:49:04.139Z,93.12
2019-02-04T00:54:39.505Z,93.54
2019-02-04T00:57:05.846Z,93.58
2019-02-04T00:59:32.066Z,93.51
2019-02-04T01:01:58.596Z,93.28
2019-02-04T01:04:24.973Z,93.07
2019-02-04T01:06:52.411Z,92.92
2019-02-04T01:09:18.860Z,93.01
2019-02-04T01:11:45.251Z,93.16
2019-02-04T01:14:11.507Z,93.36
2019-02-04T01:16:37.904Z,93.41
2019-02-04T01:19:04.427Z,93.82
2019-02-04T01:21:30.842Z,93.54
2019-02-04T01:23:57.774Z,93.86
2019-02-04T01:26:24.005Z,94.39
2019-02-04T01:28:50.419Z,94.57
2019-02-04T01:31:16.679Z,94.32
2019-02-04T01:33:42.934Z,94.21
2019-02-04T01:36:09.716Z,93.92
2019-02-04T01:38:36.328Z,93.90
2019-02-04T01:41:02.676Z,93.54
2019-02-04T01:43:29.606Z,93.49
2019-02-04T01:45:55.857Z,93.60
2019-02-04T01:48:22.269Z,93.57
2019-02-04T01:50:48.696Z,93.61
2019-02-04T01:53:14.968Z,93.73
2019-02-04T01:55:41.356Z,93.10
2019-02-04T01:58:08.002Z,93.34
2019-02-04T02:00:35.223Z,93.72
2019-02-04T02:03:01.474Z,94.08
2019-02-04T02:05:27.994Z,94.42
2019-02-04T02:07:54.449Z,94.66
2019-02-04T02:10:22.853Z,94.85
2019-02-04T02:12:49.386Z,95.05
2019-02-04T02:15:24.808Z,95.22
2019-02-04T02:17:51.345Z,95.15
2019-02-04T02:20:23.659Z,95.37
2019-02-04T02:22:49.948Z,95.33
2019-02-04T02:25:16.323Z,95.63
2019-02-04T02:27:43.305Z,95.57
2019-02-04T02:30:13.426Z,95.71
2019-02-04T02:32:39.992Z,95.51
2019-02-04T02:35:06.887Z,95.23
2019-02-04T02:37:33.242Z,95.06
2019-02-04T02:39:59.980Z,95.19
2019-02-04T02:42:26.245Z,95.15
2019-02-04T02:44:52.423Z,95.07
2019-02-04T02:47:18.788Z,95.06
2019-02-04T02:49:45.149Z,94.82
2019-02-04T02:52:11.842Z,94.70
2019-02-04T02:54:38.033Z,94.61
2019-02-04T02:57:05.248Z,94.25
2019-02-04T02:59:31.580Z,94.22
2019-02-04T03:01:57.804Z,93.81
2019-02-04T03:04:24.028Z,93.74
2019-02-04T03:06:50.477Z,93.74
2019-02-04T03:09:16.793Z,93.93
2019-02-04T03:11:43.199Z,93.80
2019-02-04T03:14:09.649Z,93.48
2019-02-04T03:16:35.970Z,93.87
2019-02-04T03:19:02.340Z,94.06
2019-02-04T03:25:05.265Z,93.24
2019-02-04T03:27:31.519Z,92.84
2019-02-04T03:29:58.223Z,93.28
2019-02-04T03:32:24.550Z,93.12
2019-02-04T03:34:50.818Z,93.33
2019-02-04T03:37:17.180Z,93.22
2019-02-04T03:39:43.707Z,93.54
2019-02-04T03:42:09.978Z,92.83
2019-02-04T03:44:36.437Z,93.06
2019-02-04T03:47:02.827Z,93.37
2019-02-04T03:49:29.137Z,93.56
2019-02-04T03:51:55.375Z,93.39
2019-02-04T03:54:21.743Z,93.11
2019-02-04T03:56:48.088Z,93.09
2019-02-04T03:59:14.452Z,93.03
2019-02-04T04:01:40.868Z,92.64
2019-02-04T04:04:07.133Z,92.75
2019-02-04T04:06:33.738Z,93.06
2019-02-04T04:09:00.048Z,93.03
2019-02-04T04:11:26.304Z,93.13
2019-02-04T04:13:53.062Z,93.17
2019-02-04T04:16:19.380Z,93.38
2019-02-04T04:18:45.937Z,93.48
2019-02-04T04:21:12.266Z,93.84
2019-02-04T04:23:38.674Z,93.56
2019-02-04T04:26:04.969Z,93.68
2019-02-04T04:28:31.665Z,93.96
2019-02-04T04:30:58.002Z,94.09
2019-02-04T04:33:24.354Z,94.05
2019-02-04T04:35:50.796Z,94.38
2019-02-04T04:38:18.913Z,94.33
2019-02-04T04:40:45.177Z,94.23
2019-02-04T04:43:11.825Z,93.67
2019-02-04T04:45:38.146Z,94.22
2019-02-04T04:48:04.890Z,94.25
2019-02-04T04:50:33.390Z,94.25
2019-02-04T04:52:59.818Z,93.85
2019-02-04T04:55:26.148Z,93.47
2019-02-04T04:57:53.292Z,93.86
2019-02-04T05:00:26.260Z,93.86
2019-02-04T05:02:52.771Z,94.07
2019-02-04T05:05:19.741Z,93.97
2019-02-04T05:07:46.185Z,93.67
2019-02-04T05:10:15.834Z,93.32
2019-02-04T05:12:42.651Z,93.06
2019-02-04T05:15:12.334Z,93.25
2019-02-04T05:17:38.679Z,93.60
2019-02-04T05:20:08.799Z,93.36
2019-02-04T05:22:35.142Z,93.48
2019-02-04T05:25:01.637Z,93.72
2019-02-04T05:27:28.082Z,94.04
2019-02-04T05:29:54.466Z,94.46
2019-02-04T05:32:20.799Z,94.58
2019-02-04T05:34:47.108Z,94.23
2019-02-04T05:37:13.487Z,94.03
2019-02-04T05:39:39.769Z,93.45
2019-02-04T05:42:06.355Z,93.98
2019-02-04T05:44:33.049Z,94.07
2019-02-04T05:47:03.116Z,93.98
2019-02-04T05:49:29.422Z,94.67
2019-02-04T05:51:56.251Z,94.86
2019-02-04T05:54:23.291Z,94.84
2019-02-04T05:56:49.762Z,94.57
2019-02-04T05:59:16.092Z,94.54
2019-02-04T06:01:42.446Z,94.28
2019-02-04T06:04:08.924Z,93.92
2019-02-04T06:06:35.290Z,94.19
2019-02-04T06:09:01.564Z,94.44
2019-02-04T06:11:28.017Z,94.67
2019-02-04T06:13:55.042Z,94.55
2019-02-04T06:16:21.589Z,94.50
2019-02-04T06:18:48.276Z,95.47
2019-02-04T06:21:14.949Z,95.78
2019-02-04T06:23:41.636Z,95.72
2019-02-04T06:26:08.429Z,95.72
2019-02-04T06:28:35.614Z,95.56
2019-02-04T06:31:02.199Z,95.75
2019-02-04T06:33:28.832Z,95.50
2019-02-04T06:35:55.870Z,95.60
2019-02-04T06:38:22.617Z,95.57
2019-02-04T06:40:49.147Z,95.36
2019-02-04T06:43:15.899Z,95.15
2019-02-04T06:45:42.600Z,95.30
2019-02-04T06:48:09.273Z,95.43
2019-02-04T06:50:35.804Z,95.35
2019-02-04T06:53:02.373Z,94.96
2019-02-04T06:55:33.039Z,95.15
2019-02-04T06:57:59.879Z,94.74
2019-02-04T07:00:26.970Z,94.18
2019-02-04T07:02:54.090Z,93.88
2019-02-04T07:05:20.991Z,93.52
2019-02-04T07:07:47.475Z,93.07
2019-02-04T07:10:17.720Z,93.51
2019-02-04T07:12:44.742Z,93.18
2019-02-04T07:15:11.774Z,92.88
2019-02-04T07:17:39.138Z,92.23
2019-02-04T07:20:09.477Z,92.97
2019-02-04T07:22:36.299Z,93.32
2019-02-04T07:25:05.849Z,93.09
2019-02-04T07:27:32.264Z,93.16
2019-02-04T07:29:58.701Z,93.19
2019-02-04T07:32:25.306Z,93.27
2019-02-04T07:34:52.572Z,93.17
2019-02-04T07:37:19.080Z,93.60
2019-02-04T07:39:45.976Z,93.81
2019-02-04T07:42:13.445Z,93.54
2019-02-04T07:44:39.984Z,93.67
2019-02-04T07:47:06.502Z,93.47
2019-02-04T07:49:35.207Z,94.09
2019-02-04T07:52:01.912Z,94.53
2019-02-04T07:54:28.587Z,94.62
2019-02-04T07:57:01.336Z,94.63
2019-02-04T07:59:27.864Z,94.94
2019-02-04T08:01:54.957Z,94.93
2019-02-04T08:04:21.790Z,94.96
2019-02-04T08:06:48.641Z,95.18
2019-02-04T08:09:15.539Z,94.90
2019-02-04T08:11:42.432Z,94.86
2019-02-04T08:14:09.588Z,94.96
2019-02-04T08:16:36.596Z,95.16
2019-02-04T08:19:03.218Z,94.89
2019-02-04T08:21:31.218Z,94.24
2019-02-04T08:23:57.694Z,94.19
2019-02-04T08:26:24.979Z,93.96
2019-02-04T08:28:52.419Z,93.58
2019-02-04T08:31:19.536Z,93.54
2019-02-04T08:33:46.656Z,93.41
2019-02-04T08:36:13.988Z,92.64
2019-02-04T08:42:16.079Z,91.77
2019-02-04T08:44:42.819Z,91.48
2019-02-04T08:47:09.351Z,91.00
2019-02-04T08:49:35.894Z,91.13
2019-02-04T08:52:04.315Z,90.77
2019-02-04T08:54:31.522Z,90.81
2019-02-04T08:57:04.716Z,90.59
2019-02-04T08:59:32.037Z,90.63
2019-02-04T09:01:58.751Z,90.51
2019-02-04T09:04:25.669Z,90.50
2019-02-04T09:06:52.310Z,90.61
2019-02-04T09:09:20.555Z,90.55
2019-02-04T09:11:47.191Z,89.84
2019-02-04T09:14:13.931Z,89.48
2019-02-04T09:16:40.558Z,89.34
2019-02-04T09:19:07.185Z,89.42
2019-02-04T09:21:33.854Z,89.25
2019-02-04T09:24:00.468Z,89.53
2019-02-04T09:26:27.227Z,89.38
2019-02-04T09:28:53.998Z,89.14
2019-02-04T09:31:20.420Z,88.55
2019-02-04T09:33:46.948Z,88.85
2019-02-04T09:36:13.228Z,88.88
2019-02-04T09:38:39.871Z,88.56
2019-02-04T09:41:06.436Z,88.38
2019-02-04T09:43:32.693Z,88.04
2019-02-04T09:45:59.385Z,88.43
2019-02-04T09:48:25.761Z,87.85
2019-02-04T09:50:52.231Z,87.18
2019-02-04T09:53:18.857Z,87.34
2019-02-04T09:55:45.243Z,86.90
2019-02-04T09:58:11.569Z,86.88
2019-02-04T10:00:37.896Z,86.42
2019-02-04T10:03:05.772Z,85.72
2019-02-04T10:05:32.437Z,86.31
2019-02-04T10:07:59.361Z,85.98
2019-02-04T10:10:27.986Z,85.05
2019-02-04T10:12:55.431Z,85.22
2019-02-04T10:15:36.301Z,85.36
2019-02-04T10:18:03.689Z,83.86
2019-02-04T10:20:34.043Z,84.04
2019-02-04T10:22:58.840Z,84.50
2019-02-04T10:25:33.878Z,84.02
2019-02-04T10:28:00.549Z,83.08
2019-02-04T10:30:27.533Z,82.65
2019-02-04T10:32:54.739Z,82.31
2019-02-04T10:35:21.467Z,82.00
2019-02-04T10:37:49.760Z,81.75
2019-02-04T10:40:19.419Z,81.45
2019-02-04T10:42:45.887Z,81.64
2019-02-04T10:45:14.186Z,80.78
2019-02-04T10:47:40.731Z,80.72
2019-02-04T10:50:16.294Z,80.96
2019-02-04T10:52:43.087Z,80.06
2019-02-04T10:55:10.061Z,80.35
2019-02-04T10:57:40.624Z,79.99
2019-02-04T11:00:08.556Z,79.38
2019-02-04T11:02:35.061Z,79.59
2019-02-04T11:05:01.410Z,78.80
2019-02-04T11:07:27.754Z,77.59
2019-02-04T11:09:54.545Z,77.58
2019-02-04T11:12:20.957Z,77.55
2019-02-04T11:14:47.244Z,77.60
2019-02-04T11:17:13.742Z,77.71
2019-02-04T11:19:40.172Z,77.83
2019-02-04T11:22:06.687Z,77.80
2019-02-04T11:24:33.162Z,77.62
2019-02-04T11:26:59.709Z,78.13
2019-02-04T11:29:26.606Z,77.52
2019-02-04T11:31:52.923Z,78.58
2019-02-04T11:34:19.437Z,77.97
2019-02-04T11:36:45.812Z,77.72
2019-02-04T11:39:12.365Z,77.51
2019-02-04T11:41:38.832Z,77.68
2019-02-04T11:44:05.420Z,77.68
2019-02-04T11:46:31.739Z,77.36
2019-02-04T11:49:04.525Z,77.38
2019-02-04T11:51:31.164Z,77.10
2019-02-04T11:53:57.614Z,77.31
2019-02-04T11:56:23.977Z,76.97
2019-02-04T11:58:50.331Z,77.00
2019-02-04T12:01:16.786Z,76.54
2019-02-04T12:03:49.472Z,77.14
2019-02-04T12:06:17.593Z,77.65
2019-02-04T12:08:51.107Z,77.73
2019-02-04T12:11:17.787Z,77.52
2019-02-04T12:13:44.180Z,77.37
2019-02-04T12:16:11.221Z,77.62
2019-02-04T12:18:37.777Z,77.23
2019-02-04T12:21:04.775Z,76.99
2019-02-04T12:27:07.316Z,77.18
2019-02-04T12:29:34.090Z,77.26
2019-02-04T12:32:01.053Z,77.26
2019-02-04T12:34:27.460Z,76.97
2019-02-04T12:36:53.788Z,77.44
2019-02-04T12:39:21.561Z,77.50
2019-02-04T12:41:50.625Z,77.84
2019-02-04T12:44:16.085Z,78.77
2019-02-04T12:46:42.520Z,77.85
2019-02-04T12:49:08.828Z,78.51
2019-02-04T12:51:35.516Z,77.79
2019-02-04T12:54:01.835Z,77.91
2019-02-04T12:56:28.088Z,78.98
2019-02-04T12:58:55.889Z,78.61
2019-02-04T13:01:22.327Z,78.48
2019-02-04T13:03:48.699Z,78.82
2019-02-04T13:06:15.039Z,78.81
2019-02-04T13:08:41.547Z,79.09
2019-02-04T13:11:08.074Z,78.59
2019-02-04T13:13:34.893Z,78.91
2019-02-04T13:16:01.209Z,78.15
2019-02-04T13:18:28.345Z,78.58
2019-02-04T13:20:54.872Z,78.32
2019-02-04T13:23:21.245Z,78.55
2019-02-04T13:25:47.533Z,78.89
2019-02-04T13:28:14.594Z,78.64
2019-02-04T13:30:41.123Z,78.34
2019-02-04T13:33:07.422Z,79.21
2019-02-04T13:38:34.809Z,79.35
2019-02-04T13:41:08.135Z,79.85
2019-02-04T13:43:29.612Z,79.84
2019-02-04T13:45:57.249Z,79.83
2019-02-04T13:48:23.566Z,79.83
2019-02-04T13:50:50.014Z,80.14
2019-02-04T13:53:16.500Z,79.78
2019-02-04T13:55:43.092Z,80.06
2019-02-04T13:58:09.530Z,80.21
2019-02-04T14:00:36.485Z,80.44
2019-02-04T14:03:04.484Z,80.38
2019-02-04T14:05:31.750Z,79.86
2019-02-04T14:08:00.409Z,79.96
2019-02-04T14:10:35.687Z,80.29
2019-02-04T14:13:03.698Z,80.06
2019-02-04T14:15:31.119Z,80.10
2019-02-04T14:17:57.710Z,80.03
2019-02-04T14:20:25.374Z,79.87
2019-02-04T14:22:53.431Z,79.28
2019-02-04T14:25:20.187Z,79.93
2019-02-04T14:27:46.705Z,79.54
2019-02-04T14:30:16.533Z,80.03
2019-02-04T14:32:42.909Z,80.15
2019-02-04T14:35:09.646Z,80.29
2019-02-04T14:37:36.351Z,80.37
2019-02-04T14:40:18.049Z,79.60
2019-02-04T14:42:34.518Z,79.72
2019-02-04T14:45:04.386Z,80.45
2019-02-04T14:47:34.496Z,79.90
2019-02-04T14:50:07.956Z,79.87
2019-02-04T14:52:37.993Z,79.82
2019-02-04T14:55:24.795Z,79.92
2019-02-04T14:58:19.484Z,79.48
2019-02-04T15:01:18.491Z,79.83
2019-02-04T15:04:09.614Z,79.56
2019-02-04T15:06:56.618Z,79.61
2019-02-04T15:09:43.316Z,79.63
2019-02-04T15:12:37.099Z,80.12
2019-02-04T15:15:10.665Z,80.22
2019-02-04T15:17:40.848Z,80.41
2019-02-04T15:20:10.908Z,80.51
2019-02-04T15:22:50.246Z,80.22
2019-02-04T15:25:46.760Z,80.48
2019-02-04T15:28:29.093Z,80.19
2019-02-04T15:31:35.388Z,80.04
2019-02-04T15:34:11.320Z,80.32
2019-02-04T15:36:50.058Z,79.82
2019-02-04T15:39:35.339Z,79.70
2019-02-04T15:42:08.688Z,79.61
2019-02-04T15:44:44.648Z,79.83
2019-02-04T15:47:39.284Z,79.92
2019-02-04T15:50:12.698Z,79.37
2019-02-04T15:52:45.632Z,79.80
2019-02-04T15:55:11.603Z,79.38
2019-02-04T15:57:38.032Z,79.13
2019-02-04T16:00:08.105Z,79.24
2019-02-04T16:02:34.476Z,78.97
2019-02-04T16:05:01.109Z,79.31
2019-02-04T16:07:27.866Z,79.09
2019-02-04T16:09:54.894Z,78.84
2019-02-04T16:12:21.635Z,78.45
2019-02-04T16:14:48.311Z,78.77
2019-02-04T16:17:14.753Z,78.24
2019-02-04T16:19:41.035Z,78.12
2019-02-04T16:22:07.888Z,77.93
2019-02-04T16:24:34.469Z,78.13
2019-02-04T16:27:00.965Z,78.33
2019-02-04T16:29:28.003Z,78.49
2019-02-04T16:31:54.431Z,77.95
2019-02-04T16:34:23.948Z,78.34
2019-02-04T16:36:49.558Z,77.72
2019-02-04T16:39:15.906Z,78.05
2019-02-04T16:41:42.234Z,78.16
2019-02-04T16:44:09.049Z,77.94
2019-02-04T16:46:35.933Z,78.19
2019-02-04T16:49:02.837Z,77.90
2019-02-04T16:51:29.394Z,77.35
2019-02-04T16:53:56.096Z,77.16
2019-02-04T16:56:22.787Z,77.56
2019-02-04T16:58:49.247Z,77.30
2019-02-04T17:01:15.956Z,77.00
2019-02-04T17:03:42.166Z,77.55
2019-02-04T17:06:09.238Z,77.43
2019-02-04T17:08:35.679Z,77.25
2019-02-04T17:11:01.911Z,77.04
2019-02-04T17:17:05.550Z,77.02
2019-02-04T17:20:09.950Z,76.63
2019-02-04T17:22:23.901Z,76.94
2019-02-04T17:25:09.434Z,77.21
2019-02-04T17:27:35.972Z,77.28
2019-02-04T17:30:06.502Z,77.55
2019-02-04T17:32:33.345Z,76.94
2019-02-04T17:34:59.551Z,76.63
2019-02-04T17:37:25.950Z,76.68
2019-02-04T17:39:52.340Z,76.49
2019-02-04T17:42:19.288Z,76.56
2019-02-04T17:44:45.821Z,76.60
2019-02-04T17:47:12.454Z,76.27
2019-02-04T17:49:39.121Z,76.19
2019-02-04T17:52:06.694Z,76.24
2019-02-04T17:54:33.009Z,76.04
2019-02-04T17:57:00.083Z,75.65
2019-02-04T17:59:27.381Z,75.51
2019-02-04T18:01:54.443Z,75.43
2019-02-04T18:04:21.506Z,75.55
2019-02-04T18:06:48.035Z,75.29
2019-02-04T18:09:14.377Z,75.27
2019-02-04T18:11:41.022Z,75.23
2019-02-04T18:14:07.756Z,75.26
2019-02-04T18:16:47.094Z,74.70
2019-02-04T18:19:13.186Z,75.44
2019-02-04T18:21:43.871Z,75.33
2019-02-04T18:24:10.643Z,74.82
2019-02-04T18:26:37.221Z,74.54
2019-02-04T18:29:04.077Z,74.48
2019-02-04T18:31:33.581Z,74.15
2019-02-04T18:33:58.825Z,74.03
2019-02-04T18:36:25.526Z,73.77
2019-02-04T18:38:52.449Z,80.19
2019-02-04T18:41:21.211Z,76.29
2019-02-04T18:43:47.465Z,75.74
2019-02-04T18:46:14.172Z,75.30
2019-02-04T18:48:41.585Z,75.84
2019-02-04T18:51:07.944Z,75.81
2019-02-04T18:53:34.433Z,76.65
2019-02-04T18:59:24.348Z,76.29
2019-02-04T19:01:50.921Z,76.08
2019-02-04T19:04:17.321Z,75.88
2019-02-04T19:06:47.806Z,76.02
2019-02-04T19:09:12.574Z,75.91
2019-02-04T19:11:39.007Z,75.80
2019-02-04T19:17:41.048Z,76.29
2019-02-04T19:23:18.705Z,76.01
2019-02-04T19:29:19.939Z,76.23
2019-02-04T19:31:46.557Z,75.78
2019-02-04T19:34:13.292Z,75.13
2019-02-04T19:36:45.361Z,75.17
2019-02-04T19:39:20.851Z,73.80
2019-02-04T19:41:54.256Z,73.53
2019-02-04T19:47:54.040Z,73.77
2019-02-04T19:50:38.429Z,73.46
2019-02-04T19:56:16.371Z,72.74
2019-02-04T19:58:43.103Z,72.73
2019-02-04T20:04:35.065Z,71.83
2019-02-04T20:10:36.552Z,72.01
2019-02-04T20:16:27.731Z,72.68
2019-02-04T20:18:55.024Z,72.21
2019-02-04T20:21:21.509Z,72.69
2019-02-04T20:27:27.209Z,72.74
2019-02-04T20:33:17.531Z,72.76
2019-02-04T20:35:44.557Z,73.80
2019-02-04T20:38:10.844Z,73.47
2019-02-04T20:40:37.335Z,73.88
2019-02-04T20:43:05.021Z,73.40
2019-02-04T20:45:31.721Z,73.05
2019-02-04T20:51:10.622Z,72.14
2019-02-04T20:53:36.998Z,72.46
2019-02-04T20:56:04.734Z,71.57
2019-02-04T21:01:53.884Z,71.95
2019-02-04T21:04:33.935Z,72.68
2019-02-04T21:07:01.702Z,72.04
2019-02-04T21:13:03.684Z,71.65
2019-02-04T21:15:29.961Z,71.22
2019-02-04T21:17:56.188Z,71.64
2019-02-04T21:24:15.645Z,71.47
2019-02-04T21:26:48.839Z,71.53
2019-02-04T21:29:19.063Z,71.79
2019-02-04T21:31:46.120Z,71.63
2019-02-04T21:34:13.260Z,71.81
2019-02-04T21:36:40.638Z,71.92
2019-02-04T21:39:15.236Z,74.92
2019-02-04T21:41:42.359Z,71.88
2019-02-04T21:44:08.871Z,71.72
2019-02-04T21:46:35.193Z,71.69
2019-02-04T21:49:01.851Z,71.16
2019-02-04T21:51:30.015Z,70.25
2019-02-04T21:54:13.908Z,70.48
2019-02-04T21:59:40.420Z,71.27
2019-02-04T22:02:08.486Z,71.68
2019-02-04T22:04:35.208Z,71.33
2019-02-04T22:07:01.536Z,71.47
2019-02-04T22:09:27.710Z,71.27
2019-02-04T22:11:53.980Z,71.40
2019-02-04T22:14:20.546Z,71.59
2019-02-04T22:16:48.802Z,71.26
2019-02-04T22:19:15.444Z,70.97
2019-02-04T22:21:41.878Z,70.88
2019-02-04T22:24:13.081Z,70.82
2019-02-04T22:26:39.404Z,70.66
2019-02-04T22:29:08.240Z,71.38
2019-02-04T22:31:34.601Z,71.78
2019-02-04T22:34:01.626Z,71.34
2019-02-04T22:36:28.347Z,71.06
2019-02-04T22:38:54.618Z,71.53
2019-02-04T22:41:20.922Z,71.62
2019-02-04T22:43:47.288Z,70.98
2019-02-04T22:46:13.608Z,71.22
2019-02-04T22:48:40.144Z,71.92
2019-02-04T22:51:06.376Z,71.23
2019-02-04T22:53:32.633Z,72.06
2019-02-04T22:55:59.394Z,71.56
2019-02-04T22:58:25.557Z,72.12
2019-02-04T23:00:55.577Z,71.13
2019-02-04T23:06:34.073Z,72.37
2019-02-04T23:09:03.003Z,72.46
2019-02-04T23:11:29.319Z,72.52
2019-02-04T23:13:55.668Z,72.04
2019-02-04T23:16:22.085Z,72.38
2019-02-04T23:18:48.408Z,72.36
2019-02-04T23:21:14.704Z,72.65
2019-02-04T23:23:40.889Z,72.40
2019-02-04T23:26:08.208Z,72.54
2019-02-04T23:28:34.581Z,71.52
2019-02-04T23:31:00.834Z,72.53
2019-02-04T23:33:34.187Z,72.68
2019-02-04T23:35:55.625Z,72.99
2019-02-04T23:38:21.940Z,72.61
2019-02-04T23:40:48.320Z,72.27
2019-02-04T23:43:14.515Z,72.46
2019-02-04T23:45:41.154Z,72.23
2019-02-04T23:48:07.446Z,72.77
2019-02-04T23:50:33.953Z,72.60
2019-02-04T23:53:00.165Z,72.68
2019-02-04T23:55:26.457Z,72.48
2019-02-04T23:57:52.698Z,72.89
